Time;durP1;ratioP1;P1;durP2;ratioP2;P2;SDS_P1;SDS_P2;PMS_P1;PMS_P2;Temp;Humidity;BMP_temperature;BMP_pressure;BME280_temperature;BME280_humidity;BME280_pressure;Samples;Min_cycle;Max_cycle;Signal;HPM_P1;HPM_P2
2023/06/24 00:01:41;;;;;;;6.10;5.50;;;;;;;26.03;42.87;99488.94;5073345;28;20024;-76
2023/06/24 00:04:07;;;;;;;6.07;5.43;;;;;;;25.85;43.08;99474.13;5073121;28;20067;-77
2023/06/24 00:06:32;;;;;;;7.57;5.40;;;;;;;25.95;43.18;99480.28;5071607;28;20032;-77
2023/06/24 00:09:00;;;;;;;9.18;5.72;;;;;;;26.25;43.37;99538.03;5072970;28;20016;-76
2023/06/24 00:11:29;;;;;;;8.25;5.55;;;;;;;25.77;43.09;99463.91;5073235;28;20095;-77
2023/06/24 00:13:55;;;;;;;9.10;5.78;;;;;;;26.20;43.29;99536.16;5072969;28;20031;-76
2023/06/24 00:16:27;;;;;;;8.70;5.75;;;;;;;25.90;43.25;99510.09;5073365;28;20517;-78
2023/06/24 00:18:58;;;;;;;8.20;6.25;;;;;;;25.96;43.61;99519.78;5073717;28;20027;-77
2023/06/24 00:21:29;;;;;;;;;;;;;;;25.87;44.00;99547.69;5073471;28;20078;-76
2023/06/24 00:23:58;;;;;;;7.55;5.70;;;;;;;25.42;43.72;99468.38;5071752;28;19939;-76
2023/06/24 00:26:24;;;;;;;7.28;6.25;;;;;;;25.42;43.83;99468.38;5072991;28;20100;-75
2023/06/24 00:28:49;;;;;;;7.43;6.03;;;;;;;25.53;43.81;99488.88;5073173;28;20024;-77
2023/06/24 00:31:15;;;;;;;6.93;6.10;;;;;;;25.79;44.08;99518.53;5073518;28;20074;-75
2023/06/24 00:33:40;;;;;;;8.63;5.82;;;;;;;25.46;44.27;99460.53;5075395;28;20096;-77
2023/06/24 00:36:11;;;;;;;8.55;5.78;;;;;;;25.46;44.14;99468.66;5071709;28;20107;-75
2023/06/24 00:38:37;;;;;;;9.23;6.22;;;;;;;25.70;44.13;99529.13;5072717;28;20021;-75
2023/06/24 00:41:03;;;;;;;11.25;6.03;;;;;;;25.09;44.49;99421.19;5072464;28;20082;-77
2023/06/24 00:43:29;;;;;;;10.02;6.10;;;;;;;25.39;44.64;99487.06;5071646;28;20507;-75
2023/06/24 00:45:55;;;;;;;9.45;5.72;;;;;;;25.62;44.39;99525.06;5072583;28;20021;-76
2023/06/24 00:48:21;;;;;;;7.35;6.35;;;;;;;25.09;44.85;99455.50;5072265;28;20108;-78
2023/06/24 00:50:49;;;;;;;9.93;5.95;;;;;;;25.10;44.68;99449.84;5072071;28;20048;-76
2023/06/24 00:53:15;;;;;;;12.40;7.25;;;;;;;24.98;44.66;99436.63;5072119;28;20103;-77
2023/06/24 00:55:41;;;;;;;8.85;6.60;;;;;;;25.48;44.90;99525.94;5070791;28;20463;-75
2023/06/24 00:58:06;;;;;;;17.65;6.15;;;;;;;25.42;45.28;99505.41;5072111;28;20045;-77
2023/06/24 01:00:34;;;;;;;15.35;6.65;;;;;;;24.93;45.27;99452.84;5070975;28;20573;-79
2023/06/24 01:03:00;;;;;;;10.88;6.60;;;;;;;25.29;45.11;99518.44;5072191;28;20103;-77
2023/06/24 01:05:29;;;;;;;6.55;5.28;;;;;;;25.38;45.13;99515.97;5072361;28;20108;-77
2023/06/24 01:07:55;;;;;;;7.20;5.68;;;;;;;24.88;44.95;99438.53;5071967;28;20468;-77
2023/06/24 01:10:23;;;;;;;7.78;6.35;;;;;;;25.38;44.96;99509.75;5071970;28;20024;-76
2023/06/24 01:12:49;;;;;;;12.15;6.38;;;;;;;25.09;45.00;99467.13;5070711;28;20029;-76
2023/06/24 01:15:15;;;;;;;6.75;6.10;;;;;;;25.32;45.06;99503.56;5072004;28;20123;-76
2023/06/24 01:17:43;;;;;;;8.70;6.90;;;;;;;25.29;45.15;99502.22;5072028;28;20082;-77
2023/06/24 01:20:33;;;;;;;8.38;6.85;;;;;;;24.99;45.25;99459.06;5070535;28;20028;-76
2023/06/24 01:23:14;;;;;;;6.20;5.60;;;;;;;25.22;45.30;99501.69;5071921;28;20044;-77
2023/06/24 01:26:16;;;;;;;7.20;6.15;;;;;;;25.18;45.42;99511.41;5071814;28;20493;-77
2023/06/24 01:29:14;;;;;;;8.95;6.35;;;;;;;25.13;45.74;99500.63;5071721;28;20108;-76
2023/06/24 01:31:48;;;;;;;9.38;6.72;;;;;;;25.07;45.89;99490.91;5071500;28;20028;-75
2023/06/24 01:34:34;;;;;;;8.73;5.97;;;;;;;24.94;45.85;99475.25;5071617;28;20033;-77
2023/06/24 01:37:19;;;;;;;8.57;6.30;;;;;;;24.99;46.42;99497.69;5071925;28;20117;-75
2023/06/24 01:40:12;;;;;;;11.02;6.70;;;;;;;24.30;46.35;99384.09;5071971;28;20063;-75
2023/06/24 01:42:40;;;;;;;8.57;6.18;;;;;;;25.04;46.36;99510.38;5071563;28;20031;-75
2023/06/24 01:45:09;;;;;;;10.77;6.50;;;;;;;25.04;46.42;99518.47;5071980;28;20032;-77
2023/06/24 01:47:36;;;;;;;7.75;6.35;;;;;;;24.53;46.46;99452.91;5071617;28;20024;-77
2023/06/24 01:50:03;;;;;;;12.27;7.20;;;;;;;24.82;47.11;99504.44;5071884;28;20162;-76
2023/06/24 01:52:30;;;;;;;7.35;6.50;;;;;;;24.65;47.21;99502.03;5071735;28;20035;-75
2023/06/24 01:54:58;;;;;;;7.95;7.07;;;;;;;24.25;47.80;99465.00;5071430;28;20505;-75
2023/06/24 01:57:25;;;;;;;10.50;7.40;;;;;;;23.96;47.99;99449.34;5070111;28;20044;-77
2023/06/24 01:59:55;;;;;;;10.05;6.82;;;;;;;23.98;48.36;99476.03;5071799;28;20036;-77
2023/06/24 02:02:21;;;;;;;7.95;6.60;;;;;;;23.98;48.56;99481.44;5071439;28;20025;-76
2023/06/24 02:04:49;;;;;;;7.55;6.40;;;;;;;24.13;48.63;99502.22;5071501;28;20036;-75
2023/06/24 02:07:16;;;;;;;13.27;6.60;;;;;;;24.23;48.79;99529.22;5071361;28;20090;-77
2023/06/24 02:09:45;;;;;;;9.50;6.68;;;;;;;23.75;48.72;99450.34;5071802;28;20024;-77
2023/06/24 02:12:12;;;;;;;7.55;6.47;;;;;;;23.97;48.92;99482.50;5071884;28;20024;-77
2023/06/24 02:14:38;;;;;;;12.35;7.28;;;;;;;24.30;48.56;99527.91;5072448;28;20029;-78
2023/06/24 02:17:05;;;;;;;9.52;6.88;;;;;;;24.18;48.88;99519.22;5072099;28;20024;-77
2023/06/24 02:19:32;;;;;;;9.32;6.63;;;;;;;23.90;49.13;99471.97;5070008;28;20112;-77
2023/06/24 02:21:59;;;;;;;8.48;7.43;;;;;;;23.99;49.08;99496.53;5070143;28;20085;-77
2023/06/24 02:24:27;;;;;;;8.10;6.90;;;;;;;23.89;48.99;99488.44;5071291;28;20479;-77
2023/06/24 02:26:54;;;;;;;12.48;6.97;;;;;;;23.87;48.97;99494.09;5070920;28;20028;-77
2023/06/24 02:29:21;;;;;;;8.00;7.15;;;;;;;24.03;49.45;99535.38;5070814;28;20481;-75
2023/06/24 02:31:47;;;;;;;11.55;7.18;;;;;;;23.52;49.64;99477.75;5070821;28;20032;-76
2023/06/24 02:34:12;;;;;;;11.05;7.97;;;;;;;23.89;49.66;99539.66;5071017;28;20086;-75
2023/06/24 02:36:38;;;;;;;9.38;7.15;;;;;;;23.55;49.73;99494.22;5070837;28;20020;-77
2023/06/24 02:39:04;;;;;;;9.73;7.55;;;;;;;23.78;49.98;99544.19;5071082;28;20031;-77
2023/06/24 02:41:29;;;;;;;8.65;7.28;;;;;;;23.61;49.98;99527.41;5071064;28;20036;-77
2023/06/24 02:43:54;;;;;;;8.25;6.88;;;;;;;23.46;50.18;99510.06;5071033;28;20054;-76
2023/06/24 02:46:21;;;;;;;8.23;7.03;;;;;;;23.61;50.22;99538.19;5071041;28;20024;-77
2023/06/24 02:48:49;;;;;;;9.32;7.13;;;;;;;23.30;50.13;99486.84;5069772;28;20028;-77
2023/06/24 02:51:15;;;;;;;9.57;7.53;;;;;;;23.66;50.41;99541.72;5071005;28;20557;-77
2023/06/24 02:53:41;;;;;;;11.77;7.35;;;;;;;23.26;50.37;99487.63;5069574;28;20116;-77
2023/06/24 02:56:09;;;;;;;9.38;6.90;;;;;;;23.26;50.34;99499.19;5071238;28;20051;-77
2023/06/24 02:58:38;;;;;;;11.88;7.22;;;;;;;23.57;50.58;99542.47;5071072;28;20535;-77
2023/06/24 03:01:06;;;;;;;8.02;7.18;;;;;;;23.64;50.54;99562.75;5070998;28;20509;-77
2023/06/24 03:03:33;;;;;;;7.93;7.13;;;;;;;23.68;50.72;99566.53;5070760;28;20032;-77
2023/06/24 03:05:59;;;;;;;7.40;6.70;;;;;;;23.46;50.47;99509.25;5069442;28;20012;-75
2023/06/24 03:08:26;;;;;;;10.77;8.00;;;;;;;23.44;50.40;99503.31;5072741;28;20039;-78
2023/06/24 03:10:54;;;;;;;9.00;7.25;;;;;;;23.81;50.43;99567.94;5074491;28;20561;-78
2023/06/24 03:13:20;;;;;;;8.35;7.30;;;;;;;23.41;50.43;99503.84;5074441;28;20421;-77
2023/06/24 03:15:45;;;;;;;12.32;8.13;;;;;;;23.79;50.31;99564.72;5073982;28;20028;-77
2023/06/24 03:18:11;;;;;;;12.07;7.00;;;;;;;23.37;50.23;99492.78;5074090;28;20025;-77
2023/06/24 03:20:38;;;;;;;8.25;6.97;;;;;;;23.80;49.99;99542.06;5072965;28;20024;-76
2023/06/24 03:23:07;;;;;;;8.75;7.30;;;;;;;23.80;49.91;99536.69;5074229;28;20017;-76
2023/06/24 03:25:33;;;;;;;8.43;6.70;;;;;;;23.59;49.54;99489.94;5074128;28;20485;-76
2023/06/24 03:28:00;;;;;;;13.15;7.32;;;;;;;23.56;49.21;99482.38;5074141;28;20035;-76
2023/06/24 03:30:26;;;;;;;10.07;7.22;;;;;;;23.62;49.11;99497.50;5074089;28;20020;-77
2023/06/24 03:32:52;;;;;;;11.63;7.22;;;;;;;24.05;48.67;99574.50;5073969;28;20024;-77
2023/06/24 03:35:17;;;;;;;9.73;7.45;;;;;;;24.05;48.79;99568.31;5074004;28;20027;-75
2023/06/24 03:37:43;;;;;;;7.78;6.72;;;;;;;23.63;48.52;99509.91;5072693;28;20020;-76
2023/06/24 03:40:08;;;;;;;10.18;6.90;;;;;;;23.70;48.39;99531.22;5073949;28;20459;-76
2023/06/24 03:42:34;;;;;;;11.40;7.50;;;;;;;23.70;48.33;99532.03;5073854;28;20021;-77
2023/06/24 03:44:59;;;;;;;11.32;7.90;;;;;;;23.89;49.01;99564.75;5072359;28;20027;-75
2023/06/24 03:47:24;;;;;;;11.18;8.63;;;;;;;23.80;49.51;99574.41;5073588;28;20050;-75
2023/06/24 03:49:50;;;;;;;11.00;8.73;;;;;;;23.63;49.98;99577.28;5073423;28;20512;-77
2023/06/24 03:52:17;;;;;;;12.30;9.15;;;;;;;23.01;50.34;99507.94;5071976;28;20043;-77
2023/06/24 03:54:42;;;;;;;12.68;9.10;;;;;;;23.37;50.70;99583.59;5073456;28;20027;-77
2023/06/24 03:57:09;;;;;;;10.68;8.55;;;;;;;23.29;51.03;99592.16;5072141;28;20044;-77
2023/06/24 03:59:35;;;;;;;8.88;7.97;;;;;;;23.03;51.14;99559.66;5073466;28;20044;-77
2023/06/24 04:02:01;;;;;;;13.02;9.10;;;;;;;22.96;51.39;99555.56;5073199;28;20524;-76
2023/06/24 04:04:26;;;;;;;9.48;8.30;;;;;;;23.20;51.56;99591.84;5071945;28;20199;-77
2023/06/24 04:06:51;;;;;;;9.93;8.90;;;;;;;23.24;51.50;99590.25;5073250;28;20016;-78
2023/06/24 04:09:17;;;;;;;9.32;8.10;;;;;;;22.97;51.43;99547.22;5073225;28;20548;-75
2023/06/24 04:11:42;;;;;;;9.90;8.15;;;;;;;22.90;51.62;99526.97;5073139;28;20029;-76
2023/06/24 04:14:09;;;;;;;9.57;8.35;;;;;;;23.32;51.61;99599.72;5073251;28;20028;-78
2023/06/24 04:16:35;;;;;;;11.75;9.23;;;;;;;23.35;51.33;99591.13;5072979;28;20470;-76
2023/06/24 04:19:01;;;;;;;9.77;8.45;;;;;;;23.20;51.43;99567.59;5072844;28;20028;-78
2023/06/24 04:21:26;;;;;;;9.60;8.60;;;;;;;22.94;51.63;99531.56;5071386;28;20485;-76
2023/06/24 04:23:52;;;;;;;11.88;8.73;;;;;;;23.24;51.28;99560.63;5071323;28;20035;-78
2023/06/24 04:26:17;;;;;;;10.77;9.52;;;;;;;23.39;51.25;99581.44;5072663;28;20032;-76
2023/06/24 04:28:43;;;;;;;9.93;8.77;;;;;;;23.49;51.00;99594.97;5072705;28;20095;-78
2023/06/24 04:31:08;;;;;;;10.15;8.48;;;;;;;23.34;50.67;99566.06;5072954;28;20086;-74
2023/06/24 04:33:33;;;;;;;9.82;8.68;;;;;;;23.28;50.69;99548.25;5072763;28;20035;-77
2023/06/24 04:36:00;;;;;;;10.70;8.93;;;;;;;23.54;50.29;99572.63;5072896;28;20020;-76
2023/06/24 04:38:25;;;;;;;9.05;8.23;;;;;;;23.42;50.16;99552.09;5071951;28;20054;-78
2023/06/24 04:40:51;;;;;;;11.77;8.75;;;;;;;23.61;50.12;99563.25;5072811;28;20126;-76
2023/06/24 04:43:16;;;;;;;13.73;9.25;;;;;;;23.86;49.85;99591.44;5072801;28;20528;-76
2023/06/24 04:45:41;;;;;;;10.02;8.90;;;;;;;23.86;49.64;99572.56;5072458;28;20077;-76
2023/06/24 04:48:07;;;;;;;12.77;8.98;;;;;;;23.98;49.59;99587.44;5072275;28;20025;-76
2023/06/24 04:50:32;;;;;;;13.98;8.82;;;;;;;24.03;49.95;99582.06;5071332;28;20067;-76
2023/06/24 04:52:58;;;;;;;11.02;7.70;;;;;;;24.04;49.88;99580.16;5072196;28;20024;-76
2023/06/24 04:55:23;;;;;;;13.45;8.57;;;;;;;24.18;49.77;99586.69;5072225;28;20115;-77
2023/06/24 04:57:49;;;;;;;13.40;8.30;;;;;;;23.90;49.41;99534.00;5070624;28;20067;-77
2023/06/24 05:00:15;;;;;;;8.60;7.43;;;;;;;23.98;49.03;99538.88;5072171;28;20047;-77
2023/06/24 05:02:40;;;;;;;7.55;6.75;;;;;;;24.00;48.61;99542.13;5070710;28;20095;-77
2023/06/24 05:05:06;;;;;;;7.32;6.63;;;;;;;24.06;48.70;99541.06;5070744;28;20123;-77
2023/06/24 05:07:31;;;;;;;10.43;7.80;;;;;;;24.13;48.75;99542.69;5072111;28;20108;-78
2023/06/24 05:09:56;;;;;;;8.73;7.03;;;;;;;24.08;48.89;99519.22;5071759;28;20025;-77
2023/06/24 05:12:22;;;;;;;8.15;7.35;;;;;;;24.35;48.95;99560.28;5071963;28;20409;-77
2023/06/24 05:14:54;;;;;;;8.20;6.93;;;;;;;24.61;48.85;99590.84;5073090;28;20035;-75
2023/06/24 05:17:20;;;;;;;9.32;7.57;;;;;;;24.66;48.79;99593.56;5071798;28;20020;-77
2023/06/24 05:19:45;;;;;;;8.68;7.82;;;;;;;24.18;48.49;99526.50;5071954;28;20031;-77
2023/06/24 05:22:11;;;;;;;12.60;7.68;;;;;;;24.64;48.82;99582.22;5071967;28;20020;-75
2023/06/24 05:24:36;;;;;;;9.10;7.18;;;;;;;24.63;48.94;99587.88;5070558;28;20477;-75
2023/06/24 05:27:06;;;;;;;9.18;7.65;;;;;;;24.52;48.55;99568.16;5071876;28;20549;-77
2023/06/24 05:29:32;;;;;;;8.55;7.35;;;;;;;24.80;48.84;99603.81;5069803;28;20029;-77
2023/06/24 05:31:58;;;;;;;7.90;7.10;;;;;;;24.52;48.82;99564.63;5071294;28;20436;-75
2023/06/24 05:34:24;;;;;;;7.80;7.00;;;;;;;24.84;48.52;99605.72;5071367;28;20020;-78
2023/06/24 05:36:49;;;;;;;8.70;7.80;;;;;;;24.56;48.38;99563.84;5071544;28;20020;-77
2023/06/24 05:39:15;;;;;;;8.93;7.28;;;;;;;24.53;48.15;99550.91;5071527;28;20024;-76
2023/06/24 05:41:40;;;;;;;7.57;6.80;;;;;;;24.55;48.73;99567.63;5070272;28;20513;-76
2023/06/24 05:44:10;;;;;;;9.65;7.78;;;;;;;24.82;48.20;99596.25;5071473;28;20020;-77
2023/06/24 05:46:36;;;;;;;8.02;7.10;;;;;;;24.79;48.35;99580.59;5071597;28;20405;-77
2023/06/24 05:49:02;;;;;;;7.65;6.85;;;;;;;24.64;48.55;99554.41;5071455;28;20098;-77
2023/06/24 05:51:27;;;;;;;8.15;7.00;;;;;;;24.82;48.41;99580.06;5071235;28;20490;-77
2023/06/24 05:53:53;;;;;;;8.05;7.32;;;;;;;24.69;48.20;99543.59;5069951;28;20020;-77
2023/06/24 05:56:20;;;;;;;10.65;7.43;;;;;;;25.20;47.91;99622.75;5071037;28;20429;-77
2023/06/24 05:58:46;;;;;;;13.48;7.85;;;;;;;24.83;47.98;99554.66;5071112;28;20050;-77
2023/06/24 06:01:11;;;;;;;8.13;7.20;;;;;;;25.28;47.72;99622.22;5071228;28;20491;-76
2023/06/24 06:03:36;;;;;;;10.00;7.30;;;;;;;24.91;47.68;99557.63;5071376;28;20025;-76
2023/06/24 06:06:02;;;;;;;11.07;7.15;;;;;;;24.99;47.30;99553.59;5071108;28;20103;-76
2023/06/24 06:08:27;;;;;;;9.55;7.03;;;;;;;25.12;47.60;99576.53;5070883;28;20027;-76
2023/06/24 06:10:53;;;;;;;8.73;7.82;;;;;;;25.37;47.70;99614.38;5070933;28;20409;-77
2023/06/24 06:13:18;;;;;;;10.02;7.68;;;;;;;25.17;47.64;99573.84;5071127;28;20017;-76
2023/06/24 06:15:44;;;;;;;10.90;7.47;;;;;;;25.52;47.51;99622.44;5071377;28;20113;-77
2023/06/24 06:18:09;;;;;;;8.27;7.45;;;;;;;25.27;47.54;99579.25;5071434;28;20021;-76
2023/06/24 06:20:34;;;;;;;8.40;7.55;;;;;;;25.25;47.89;99567.88;5071362;28;20032;-78
2023/06/24 06:23:00;;;;;;;8.88;7.70;;;;;;;25.25;47.62;99552.47;5071528;28;20522;-76
2023/06/24 06:25:25;;;;;;;8.45;7.38;;;;;;;25.73;47.78;99631.34;5071231;28;20024;-76
2023/06/24 06:27:51;;;;;;;8.80;7.78;;;;;;;25.55;47.58;99577.81;5071210;28;20505;-76
2023/06/24 06:30:17;;;;;;;8.80;7.88;;;;;;;25.63;47.45;99594.28;5071006;28;20027;-76
2023/06/24 06:32:43;;;;;;;11.57;8.63;;;;;;;25.89;47.40;99615.88;5070752;28;20497;-76
2023/06/24 06:35:08;;;;;;;8.85;7.50;;;;;;;25.31;47.31;99515.47;5069574;28;20023;-76
2023/06/24 06:37:34;;;;;;;8.77;7.53;;;;;;;25.60;46.95;99561.59;5071000;28;20016;-76
2023/06/24 06:39:59;;;;;;;9.70;7.50;;;;;;;25.72;46.50;99567.53;5071082;28;20032;-76
2023/06/24 06:42:25;;;;;;;8.27;7.40;;;;;;;25.87;46.69;99580.16;5072882;28;20111;-76
2023/06/24 06:44:50;;;;;;;8.02;7.22;;;;;;;26.06;46.43;99610.94;5073809;28;20021;-76
2023/06/24 06:47:15;;;;;;;14.20;7.40;;;;;;;26.07;46.44;99596.31;5074840;28;20023;-76
2023/06/24 06:49:41;;;;;;;9.20;7.10;;;;;;;25.70;46.00;99542.66;5074848;28;20436;-76
2023/06/24 06:52:07;;;;;;;8.55;7.50;;;;;;;26.29;46.05;99615.69;5074920;28;20028;-77
2023/06/24 06:54:32;;;;;;;8.63;7.03;;;;;;;26.37;45.88;99613.50;5075063;28;20051;-78
2023/06/24 06:57:03;;;;;;;8.48;6.88;;;;;;;26.24;45.69;99587.84;5074459;28;20100;-76
2023/06/24 06:59:28;;;;;;;9.10;7.03;;;;;;;26.13;45.62;99559.22;5074382;28;20021;-76
2023/06/24 07:01:53;;;;;;;8.50;7.03;;;;;;;26.30;45.34;99573.19;5074288;28;20499;-77
2023/06/24 07:04:19;;;;;;;8.20;7.45;;;;;;;26.15;45.16;99555.16;5074275;28;20020;-75
2023/06/24 07:06:44;;;;;;;8.63;7.68;;;;;;;26.23;45.14;99551.03;5074067;28;20402;-76
2023/06/24 07:09:10;;;;;;;8.07;6.85;;;;;;;26.38;44.61;99561.00;5074111;28;20020;-75
2023/06/24 07:11:35;;;;;;;8.55;7.40;;;;;;;26.73;44.62;99600.53;5074072;28;20017;-76
2023/06/24 07:14:00;;;;;;;12.02;7.90;;;;;;;26.80;44.75;99595.63;5074255;28;20044;-75
2023/06/24 07:16:26;;;;;;;8.68;7.57;;;;;;;26.53;44.62;99541.91;5074141;28;20028;-76
2023/06/24 07:18:51;;;;;;;8.25;7.40;;;;;;;26.48;44.67;99529.22;5074116;28;20024;-76
2023/06/24 07:21:17;;;;;;;8.52;7.72;;;;;;;26.52;44.53;99529.47;5074148;28;20032;-76
2023/06/24 07:23:42;;;;;;;8.60;6.88;;;;;;;26.53;44.55;99518.34;5074056;28;20034;-76
2023/06/24 07:26:07;;;;;;;12.18;8.02;;;;;;;26.76;44.08;99543.09;5074570;28;20038;-76
2023/06/24 07:28:33;;;;;;;8.55;7.50;;;;;;;26.67;44.17;99533.94;5073881;28;20472;-76
2023/06/24 07:30:58;;;;;;;9.57;7.68;;;;;;;26.77;44.04;99534.69;5074067;28;20023;-77
2023/06/24 07:33:24;;;;;;;8.70;7.65;;;;;;;27.18;43.56;99583.94;5072680;28;20013;-77
2023/06/24 07:35:49;;;;;;;9.75;7.78;;;;;;;27.05;43.50;99545.84;5074011;28;20044;-77
2023/06/24 07:38:14;;;;;;;8.70;7.82;;;;;;;27.05;43.49;99538.53;5073948;28;20021;-77
2023/06/24 07:40:40;;;;;;;11.07;7.63;;;;;;;27.15;43.44;99530.28;5073839;28;20063;-77
2023/06/24 07:43:05;;;;;;;9.48;7.78;;;;;;;27.21;43.06;99539.97;5073596;28;20016;-76
2023/06/24 07:45:31;;;;;;;8.38;7.53;;;;;;;27.64;42.88;99588.91;5073701;28;20052;-76
2023/06/24 07:47:56;;;;;;;8.15;7.38;;;;;;;27.75;42.87;99581.47;5074481;28;20021;-78
2023/06/24 07:50:22;;;;;;;9.80;8.02;;;;;;;27.47;42.50;99532.38;5074080;28;20055;-76
2023/06/24 07:52:47;;;;;;;8.77;7.13;;;;;;;27.60;42.40;99552.59;5073127;28;20078;-75
2023/06/24 07:55:12;;;;;;;8.45;7.30;;;;;;;27.48;42.29;99511.47;5073668;28;20409;-77
2023/06/24 07:57:38;;;;;;;10.55;8.05;;;;;;;27.92;41.90;99576.34;5073610;28;20041;-75
2023/06/24 08:00:11;;;;;;;8.77;7.57;;;;;;;27.95;42.37;99577.69;5073286;28;20108;-77
2023/06/24 08:02:36;;;;;;;10.52;8.07;;;;;;;27.94;41.99;99576.88;5073520;28;20055;-76
2023/06/24 08:05:02;;;;;;;9.70;8.25;;;;;;;28.12;41.78;99589.66;5073416;28;20067;-77
2023/06/24 08:07:28;;;;;;;8.52;7.82;;;;;;;27.98;41.87;99558.91;5073407;28;20025;-75
2023/06/24 08:09:53;;;;;;;9.40;8.38;;;;;;;28.02;41.72;99553.69;5073563;28;20123;-76
2023/06/24 08:12:18;;;;;;;9.05;8.15;;;;;;;28.27;41.65;99585.97;5074952;28;20025;-76
2023/06/24 08:14:44;;;;;;;10.98;8.20;;;;;;;28.11;41.36;99568.22;5071484;28;20017;-77
2023/06/24 08:17:09;;;;;;;9.52;8.63;;;;;;;28.35;41.39;99592.66;5072768;28;20020;-77
2023/06/24 08:19:34;;;;;;;9.75;8.55;;;;;;;28.39;41.12;99588.25;5072841;28;20047;-77
2023/06/24 08:22:00;;;;;;;9.88;8.88;;;;;;;28.33;41.31;99564.97;5071349;28;20113;-76
2023/06/24 08:24:25;;;;;;;10.43;7.95;;;;;;;28.20;41.28;99552.09;5071225;28;20078;-77
2023/06/24 08:26:52;;;;;;;11.60;8.38;;;;;;;28.15;41.24;99517.66;5072605;28;20020;-77
2023/06/24 08:29:18;;;;;;;10.77;8.85;;;;;;;28.64;41.42;99578.91;5072540;28;20099;-76
2023/06/24 08:31:43;;;;;;;13.70;9.25;;;;;;;28.92;41.53;99596.94;5072624;28;20034;-77
2023/06/24 08:34:09;;;;;;;8.98;8.07;;;;;;;28.77;40.75;99559.91;5072502;28;20021;-76
2023/06/24 08:36:36;;;;;;;9.90;8.60;;;;;;;29.10;40.91;99604.25;5072812;28;20028;-77
2023/06/24 08:39:01;;;;;;;9.02;8.23;;;;;;;29.25;40.64;99595.00;5072686;28;20020;-77
2023/06/24 08:41:27;;;;;;;12.25;8.98;;;;;;;28.97;40.40;99542.47;5072446;28;20027;-76
2023/06/24 08:43:56;;;;;;;9.57;8.15;;;;;;;29.48;40.90;99597.88;5072598;28;20021;-76
2023/06/24 08:46:24;;;;;;;9.65;7.90;;;;;;;29.54;40.09;99596.69;5072457;28;20080;-77
2023/06/24 08:48:57;;;;;;;13.65;9.63;;;;;;;29.58;40.55;99595.78;5072373;28;20027;-76
2023/06/24 08:51:27;;;;;;;9.13;8.23;;;;;;;29.36;40.23;99571.97;5072690;28;20020;-76
2023/06/24 08:53:53;;;;;;;10.10;8.13;;;;;;;29.62;40.63;99596.78;5072173;28;20016;-76
2023/06/24 08:56:19;;;;;;;8.93;8.02;;;;;;;29.66;40.33;99594.25;5072640;28;20103;-76
2023/06/24 08:58:45;;;;;;;11.25;8.93;;;;;;;29.76;40.30;99598.72;5071935;28;20049;-77
2023/06/24 09:01:11;;;;;;;13.13;8.73;;;;;;;29.86;39.82;99596.59;5071960;28;20079;-74
2023/06/24 09:03:36;;;;;;;9.88;8.27;;;;;;;29.67;39.56;99561.31;5071636;28;20028;-77
2023/06/24 09:06:02;;;;;;;11.93;9.10;;;;;;;30.03;39.88;99585.91;5071457;28;20035;-77
2023/06/24 09:08:27;;;;;;;9.82;8.63;;;;;;;29.87;39.53;99546.50;5071650;28;20028;-76
2023/06/24 09:10:56;;;;;;;9.52;8.60;;;;;;;30.30;39.23;99578.78;5070571;28;20020;-76
2023/06/24 09:13:27;;;;;;;10.63;8.55;;;;;;;30.38;38.78;99561.69;5071858;28;20489;-77
2023/06/24 09:15:52;;;;;;;11.70;8.52;;;;;;;30.73;38.56;99575.63;5071877;28;20025;-77
2023/06/24 09:18:18;;;;;;;11.57;8.07;;;;;;;30.50;37.70;99518.38;5071971;28;20107;-77
2023/06/24 09:20:45;;;;;;;13.52;10.30;;;;;;;30.71;37.59;99518.72;5071731;28;20405;-77
2023/06/24 09:23:11;;;;;;;11.38;9.07;;;;;;;31.09;37.26;99549.06;5071505;28;20017;-77
2023/06/24 09:25:36;;;;;;;8.43;7.63;;;;;;;31.25;36.48;99555.78;5071575;28;20082;-75
2023/06/24 09:28:03;;;;;;;9.05;8.15;;;;;;;31.58;36.28;99579.97;5070276;28;20024;-75
2023/06/24 09:30:28;;;;;;;10.55;8.05;;;;;;;31.63;36.05;99549.00;5071556;28;20028;-77
2023/06/24 09:32:55;;;;;;;7.30;6.60;;;;;;;31.79;35.21;99540.06;5071629;28;20024;-76
2023/06/24 09:35:22;;;;;;;9.48;7.47;;;;;;;31.78;34.24;99500.22;5071470;28;20413;-76
2023/06/24 09:37:54;;;;;;;7.07;6.38;;;;;;;32.39;33.54;99572.16;5071510;28;20020;-76
2023/06/24 09:40:23;;;;;;;7.82;7.03;;;;;;;32.47;33.32;99573.25;5071426;28;20035;-76
2023/06/24 09:42:53;;;;;;;7.65;6.88;;;;;;;32.63;33.10;99568.91;5069987;28;20034;-76
2023/06/24 09:45:24;;;;;;;8.35;7.35;;;;;;;32.78;32.91;99562.19;5070045;28;20013;-76
2023/06/24 09:47:49;;;;;;;9.43;6.65;;;;;;;32.82;32.57;99561.22;5071356;28;20025;-76
2023/06/24 09:50:15;;;;;;;10.68;9.48;;;;;;;32.95;32.86;99547.66;5071275;28;20019;-77
2023/06/24 09:52:44;;;;;;;8.50;7.75;;;;;;;33.09;32.42;99537.31;5071098;28;20135;-76
2023/06/24 09:55:15;;;;;;;10.93;8.23;;;;;;;33.47;32.05;99556.53;5069767;28;20119;-77
2023/06/24 09:57:44;;;;;;;8.68;6.82;;;;;;;33.54;31.19;99545.06;5069585;28;20182;-76
2023/06/24 10:00:10;;;;;;;10.13;7.80;;;;;;;33.72;31.47;99544.63;5071013;28;20029;-76
2023/06/24 10:02:37;;;;;;;10.00;7.05;;;;;;;33.89;30.94;99540.19;5071042;28;20031;-76
2023/06/24 10:05:03;;;;;;;8.23;6.95;;;;;;;33.73;30.19;99498.88;5071008;28;20028;-77
2023/06/24 10:07:29;;;;;;;6.97;6.28;;;;;;;34.06;30.02;99543.59;5071279;28;20077;-76
2023/06/24 10:09:55;;;;;;;8.32;7.63;;;;;;;33.85;30.09;99490.75;5069813;28;20086;-77
2023/06/24 10:12:20;;;;;;;7.72;6.97;;;;;;;34.12;30.31;99497.63;5070994;28;20020;-75
2023/06/24 10:14:46;;;;;;;8.02;7.15;;;;;;;34.04;29.50;99465.63;5069558;28;20075;-77
2023/06/24 10:17:12;;;;;;;7.10;6.50;;;;;;;34.28;29.69;99464.94;5074575;28;20096;-76
2023/06/24 10:19:41;;;;;;;6.50;5.90;;;;;;;34.76;29.15;99515.59;5075031;28;20027;-77
2023/06/24 10:22:11;;;;;;;8.30;6.70;;;;;;;34.96;29.08;99506.56;5075166;28;20020;-76
2023/06/24 10:24:42;;;;;;;9.63;8.75;;;;;;;35.18;29.06;99503.38;5075039;28;20099;-77
2023/06/24 10:27:18;;;;;;;6.88;6.15;;;;;;;35.11;28.49;99475.69;5075064;28;20029;-76
2023/06/24 10:29:49;;;;;;;10.57;9.57;;;;;;;34.96;28.57;99440.69;5073609;28;20509;-75
2023/06/24 10:32:15;;;;;;;11.45;8.10;;;;;;;35.39;27.88;99481.31;5073340;28;20062;-76
2023/06/24 10:34:42;;;;;;;7.47;6.70;;;;;;;35.13;28.23;99426.75;5074524;28;20570;-75
2023/06/24 10:37:12;;;;;;;9.57;8.68;;;;;;;35.12;28.24;99416.91;5074687;28;20016;-76
2023/06/24 10:39:46;;;;;;;7.75;6.78;;;;;;;35.74;27.94;99481.63;5074781;28;20032;-76
2023/06/24 10:42:36;;;;;;;8.52;7.72;;;;;;;36.03;27.73;99477.78;5073454;28;20074;-78
2023/06/24 10:45:11;;;;;;;6.68;6.07;;;;;;;36.06;27.50;99473.53;5074861;28;20017;-77
2023/06/24 10:47:41;;;;;;;5.93;5.40;;;;;;;36.14;27.28;99472.59;5074733;28;20021;-76
2023/06/24 10:50:08;;;;;;;6.20;5.50;;;;;;;35.81;26.90;99410.44;5074903;28;20175;-77
2023/06/24 10:52:55;;;;;;;6.93;6.32;;;;;;;36.36;27.25;99480.31;5074891;28;20029;-76
2023/06/24 10:55:23;;;;;;;7.40;6.43;;;;;;;36.56;26.97;99462.00;5073741;28;20024;-77
2023/06/24 10:57:49;;;;;;;7.32;6.63;;;;;;;36.76;26.85;99457.41;5076388;28;20044;-76
2023/06/24 11:00:15;;;;;;;6.82;6.22;;;;;;;36.72;26.32;99443.56;5078527;28;20051;-77
2023/06/24 11:02:41;;;;;;;5.93;5.32;;;;;;;36.87;25.93;99458.50;5074482;28;20025;-77
2023/06/24 11:05:07;;;;;;;7.30;6.43;;;;;;;36.53;25.85;99392.00;5074249;28;20031;-75
2023/06/24 11:07:34;;;;;;;6.22;5.63;;;;;;;37.07;25.76;99451.91;5074398;28;20024;-76
2023/06/24 11:10:05;;;;;;;5.90;5.40;;;;;;;36.85;25.16;99403.81;5074214;28;20024;-76
2023/06/24 11:12:32;;;;;;;5.75;5.25;;;;;;;37.27;24.72;99443.75;5073917;28;20031;-75
2023/06/24 11:14:59;;;;;;;5.13;4.63;;;;;;;36.95;24.53;99391.47;5074131;28;20036;-75
2023/06/24 11:17:25;;;;;;;6.22;5.60;;;;;;;37.32;24.27;99438.78;5074180;28;20516;-76
2023/06/24 11:19:56;;;;;;;5.63;5.03;;;;;;;37.30;23.98;99412.75;5074058;28;20020;-75
2023/06/24 11:22:22;;;;;;;4.90;4.45;;;;;;;37.23;24.16;99424.41;5075580;28;20024;-78
2023/06/24 11:24:47;;;;;;;5.15;4.75;;;;;;;37.32;23.92;99429.72;5076367;28;20032;-75
2023/06/24 11:27:13;;;;;;;5.35;4.88;;;;;;;37.16;23.74;99380.97;5073409;28;20036;-77
2023/06/24 11:29:38;;;;;;;4.85;4.45;;;;;;;37.64;22.91;99414.66;5072437;28;20579;-77
2023/06/24 11:32:08;;;;;;;4.70;4.35;;;;;;;37.84;22.97;99424.56;5073777;28;20020;-77